Wetterdaten: Woche 30.03.15 - 05.04.15 (KW14)
Datum Zeit Temp. A. Feuchte A. Luftdruck Regen Wind Richtung Taupunkt Windchill Windben
30.03.2015 00:00 12,9 C 65 % 1000,9 hPa 0,0 l/m 2,5 km/h N 6,4 C 12,9 C 11,7 km/h
30.03.2015 01:00 13,0 C 65 % 1000,1 hPa 0,0 l/m 5,4 km/h N 6,5 C 12,9 C 18,1 km/h
30.03.2015 02:00 13,0 C 65 % 999,5 hPa 0,0 l/m 7,3 km/h N 6,6 C 12,5 C 22,9 km/h
30.03.2015 03:00 13,1 C 63 % 998,7 hPa 0,0 l/m 8,3 km/h N 6,1 C 12,0 C 26,6 km/h
30.03.2015 04:00 12,8 C 62 % 997,8 hPa 0,0 l/m 8,7 km/h N 5,6 C 11,4 C 29,8 km/h
30.03.2015 05:00 12,8 C 60 % 997,3 hPa 0,0 l/m 6,7 km/h N 5,3 C 12,5 C 24,6 km/h
30.03.2015 06:00 13,0 C 61 % 997,3 hPa 0,0 l/m 9,9 km/h N 5,7 C 11,1 C 30,6 km/h
30.03.2015 07:00 12,5 C 64 % 998,3 hPa 0,3 l/m 12,5 km/h N 5,9 C 9,2 C 34,2 km/h
30.03.2015 08:00 8,0 C 82 % 999,7 hPa 1,0 l/m 6,1 km/h N 5,1 C 7,2 C 13,7 km/h
30.03.2015 09:00 8,2 C 84 % 999,3 hPa 0,3 l/m 0,8 km/h N 5,6 C 8,2 C 5,2 km/h
30.03.2015 10:00 10,4 C 76 % 998,5 hPa 0,0 l/m 5,1 km/h N 6,4 C 10,4 C 17,3 km/h
30.03.2015 11:00 11,9 C 69 % 998,0 hPa 0,0 l/m 6,3 km/h N 6,4 C 11,7 C 21,3 km/h
30.03.2015 12:00 10,2 C 77 % 999,0 hPa 1,6 l/m 11,9 km/h N 6,3 C 6,8 C 30,6 km/h
30.03.2015 13:00 10,1 C 78 % 999,6 hPa 0,0 l/m 12,8 km/h N 6,5 C 6,3 C 30,6 km/h
30.03.2015 14:00 9,1 C 76 % 1000,3 hPa 0,3 l/m 10,7 km/h N 5,1 C 6,4 C 24,5 km/h
30.03.2015 15:00 9,7 C 69 % 1000,5 hPa 0,0 l/m 12,9 km/h N 4,3 C 5,8 C 38,2 km/h
30.03.2015 16:00 10,1 C 59 % 1000,9 hPa 0,0 l/m 17,3 km/h N 2,5 C 4,5 C 47,1 km/h
30.03.2015 17:00 8,8 C 62 % 1002,6 hPa 0,3 l/m 21,2 km/h N 1,8 C 1,4 C 46,3 km/h
30.03.2015 18:00 5,5 C 80 % 1003,9 hPa 2,3 l/m 13,8 km/h N 2,3 C 0,7 C 34,6 km/h
30.03.2015 19:00 6,9 C 71 % 1005,1 hPa 0,0 l/m 14,6 km/h N 2,0 C 1,7 C 31,8 km/h
30.03.2015 20:00 7,2 C 70 % 1007,2 hPa 0,0 l/m 11,1 km/h N 2,2 C 4,1 C 27,8 km/h
30.03.2015 21:00 6,7 C 70 % 1008,6 hPa 0,3 l/m 8,0 km/h N 1,7 C 5,5 C 27,8 km/h
30.03.2015 22:00 6,9 C 71 % 1009,3 hPa 0,0 l/m 8,6 km/h N 1,9 C 5,0 C 29,4 km/h
30.03.2015 23:00 6,8 C 69 % 1010,0 hPa 0,0 l/m 9,4 km/h N 1,5 C 4,5 C 27,8 km/h
31.03.2015 00:00 6,0 C 72 % 1010,8 hPa 0,0 l/m 8,1 km/h N 1,3 C 4,7 C 25,8 km/h
31.03.2015 01:00 5,9 C 68 % 1011,5 hPa 0,0 l/m 9,1 km/h N 0,5 C 3,7 C 27,8 km/h
31.03.2015 02:00 5,6 C 67 % 1011,8 hPa 0,0 l/m 3,5 km/h N 0,0 C 5,6 C 14,5 km/h
31.03.2015 03:00 5,8 C 66 % 1011,1 hPa 0,0 l/m 3,7 km/h N -0,1 C 5,8 C 18,9 km/h
31.03.2015 04:00 6,1 C 63 % 1010,1 hPa 0,0 l/m 3,7 km/h N -0,3 C 6,1 C 16,5 km/h
31.03.2015 05:00 6,0 C 66 % 1008,7 hPa 0,0 l/m 4,5 km/h N 0,1 C 6,0 C 13,7 km/h
31.03.2015 06:00 6,0 C 66 % 1008,3 hPa 0,0 l/m 1,4 km/h N 0,2 C 6,0 C 7,6 km/h
31.03.2015 07:00 5,6 C 71 % 1006,8 hPa 0,3 l/m 1,3 km/h N 0,8 C 5,6 C 7,2 km/h
31.03.2015 08:00 4,9 C 79 % 1004,9 hPa 0,8 l/m 3,5 km/h N 1,5 C 4,7 C 15,3 km/h
31.03.2015 09:00 4,9 C 83 % 1002,4 hPa 1,0 l/m 7,1 km/h N 2,3 C 4,3 C 23,3 km/h
31.03.2015 10:00 5,4 C 84 % 1000,3 hPa 0,0 l/m 4,1 km/h N 2,9 C 5,4 C 19,7 km/h
31.03.2015 11:00 7,3 C 80 % 999,1 hPa 0,0 l/m 4,3 km/h N 4,1 C 7,3 C 17,3 km/h
31.03.2015 12:00 11,1 C 70 % 997,5 hPa 0,0 l/m 5,3 km/h N 5,8 C 11,1 C 17,3 km/h
31.03.2015 13:00 14,8 C 65 % 996,5 hPa 0,0 l/m 9,5 km/h N 8,2 C 13,1 C 30,6 km/h
31.03.2015 14:00 17,2 C 54 % 995,8 hPa 0,0 l/m 14,5 km/h N 7,8 C 14,2 C 40,2 km/h
31.03.2015 15:00 16,5 C 56 % 995,8 hPa 0,3 l/m 18,4 km/h N 7,5 C 12,1 C 45,0 km/h
31.03.2015 16:00 16,1 C 53 % 996,2 hPa 0,0 l/m 20,0 km/h N 6,5 C 11,2 C 55,9 km/h
31.03.2015 17:00 14,7 C 58 % 997,3 hPa 0,5 l/m 20,1 km/h N 6,5 C 9,3 C 51,9 km/h
31.03.2015 18:00 11,2 C 76 % 999,0 hPa 1,6 l/m 15,1 km/h N 7,1 C 6,7 C 41,4 km/h
31.03.2015 19:00 10,9 C 72 % 1000,5 hPa 0,0 l/m 12,5 km/h N 6,0 C 7,4 C 42,3 km/h
31.03.2015 20:00 9,6 C 77 % 1002,7 hPa 2,1 l/m 15,5 km/h N 5,7 C 4,7 C 38,6 km/h
31.03.2015 21:00 9,8 C 65 % 1003,7 hPa 0,0 l/m 15,0 km/h N 3,5 C 4,9 C 45,5 km/h
31.03.2015 22:00 9,6 C 61 % 1004,6 hPa 0,0 l/m 15,3 km/h N 2,4 C 4,5 C 39,8 km/h
31.03.2015 23:00 9,2 C 60 % 1005,3 hPa 0,0 l/m 16,2 km/h N 1,8 C 3,8 C 45,0 km/h
01.04.2015 00:00 8,8 C 59 % 1005,9 hPa 0,0 l/m 12,0 km/h N 1,2 C 5,1 C 34,6 km/h
01.04.2015 01:00 8,5 C 59 % 1006,1 hPa 0,0 l/m 8,9 km/h N 1,0 C 6,7 C 33,0 km/h
01.04.2015 02:00 8,4 C 60 % 1005,5 hPa 0,0 l/m 8,3 km/h N 1,0 C 7,0 C 29,4 km/h
01.04.2015 03:00 8,1 C 62 % 1005,5 hPa 0,0 l/m 9,4 km/h N 1,1 C 5,9 C 31,8 km/h
01.04.2015 04:00 6,7 C 68 % 1006,2 hPa 0,0 l/m 10,9 km/h N 1,1 C 3,5 C 33,8 km/h
01.04.2015 05:00 4,4 C 80 % 1007,1 hPa 1,0 l/m 5,1 km/h N 1,2 C 4,4 C 16,5 km/h
01.04.2015 06:00 5,3 C 70 % 1007,7 hPa 0,3 l/m 9,0 km/h N 0,4 C 3,2 C 26,2 km/h
01.04.2015 07:00 5,3 C 66 % 1008,3 hPa 0,0 l/m 11,0 km/h N -0,5 C 1,8 C 33,4 km/h
01.04.2015 08:00 5,1 C 67 % 1009,1 hPa 0,0 l/m 11,9 km/h N -0,7 C 0,9 C 35,4 km/h
01.04.2015 09:00 3,8 C 77 % 1010,7 hPa 0,5 l/m 9,1 km/h N 0,1 C 1,4 C 29,4 km/h
01.04.2015 10:00 4,9 C 72 % 1010,9 hPa 0,0 l/m 8,1 km/h N 0,3 C 3,4 C 25,0 km/h
01.04.2015 11:00 6,2 C 65 % 1011,2 hPa 0,0 l/m 12,5 km/h N 0,1 C 1,9 C 36,2 km/h
01.04.2015 12:00 6,7 C 62 % 1011,6 hPa 0,0 l/m 9,1 km/h N -0,0 C 4,6 C 25,0 km/h
01.04.2015 13:00 6,3 C 62 % 1011,8 hPa 0,3 l/m 9,2 km/h N -0,5 C 4,1 C 26,5 km/h
01.04.2015 14:00 3,8 C 78 % 1012,3 hPa 1,3 l/m 9,5 km/h N 0,2 C 1,1 C 28,6 km/h
01.04.2015 15:00 5,1 C 75 % 1011,5 hPa 0,3 l/m 11,5 km/h N 0,9 C 1,2 C 32,2 km/h
01.04.2015 16:00 5,6 C 73 % 1012,0 hPa 0,3 l/m 9,6 km/h N 1,1 C 3,1 C 31,8 km/h
01.04.2015 17:00 6,1 C 69 % 1012,2 hPa 0,0 l/m 10,5 km/h N 0,8 C 2,9 C 31,8 km/h
01.04.2015 18:00 5,5 C 69 % 1013,2 hPa 0,5 l/m 11,3 km/h N 0,3 C 1,8 C 30,6 km/h
01.04.2015 19:00 3,5 C 79 % 1013,9 hPa 1,8 l/m 8,1 km/h N 0,3 C 1,6 C 24,1 km/h
01.04.2015 20:00 4,6 C 70 % 1014,4 hPa 0,3 l/m 7,5 km/h N -0,5 C 3,5 C 24,5 km/h
01.04.2015 21:00 4,8 C 68 % 1014,8 hPa 0,0 l/m 10,3 km/h N -0,7 C 1,6 C 32,2 km/h
01.04.2015 22:00 5,1 C 65 % 1014,7 hPa 0,0 l/m 9,1 km/h N -0,9 C 3,1 C 27,7 km/h
01.04.2015 23:00 4,7 C 69 % 1014,8 hPa 0,0 l/m 11,1 km/h N -0,5 C 1,1 C 31,8 km/h
02.04.2015 00:00 4,1 C 72 % 1015,2 hPa 0,0 l/m 10,7 km/h N -0,5 C 0,6 C 30,6 km/h
02.04.2015 01:00 4,3 C 69 % 1015,5 hPa 0,0 l/m 11,9 km/h N -0,8 C 0,1 C 32,6 km/h
02.04.2015 02:00 4,0 C 71 % 1015,7 hPa 0,0 l/m 13,1 km/h N -0,8 C -1,1 C 34,2 km/h
02.04.2015 03:00 3,7 C 73 % 1015,4 hPa 0,0 l/m 8,2 km/h N -0,8 C 2,1 C 25,3 km/h
02.04.2015 04:00 3,6 C 72 % 1015,1 hPa 0,0 l/m 8,8 km/h N -1,1 C 1,4 C 27,0 km/h
02.04.2015 05:00 3,8 C 71 % 1014,5 hPa 0,0 l/m 9,7 km/h N -1,0 C 0,9 C 31,0 km/h
02.04.2015 06:00 4,1 C 72 % 1013,9 hPa 0,0 l/m 11,2 km/h N -0,5 C 0,3 C 35,0 km/h
02.04.2015 07:00 4,9 C 71 % 1012,8 hPa 0,0 l/m 11,5 km/h N 0,0 C 1,0 C 33,8 km/h
02.04.2015 08:00 5,9 C 66 % 1012,0 hPa 0,0 l/m 11,9 km/h N 0,1 C 1,8 C 33,8 km/h
02.04.2015 09:00 6,3 C 65 % 1011,4 hPa 0,0 l/m 14,4 km/h N 0,2 C 1,0 C 37,4 km/h
02.04.2015 10:00 7,0 C 64 % 1010,3 hPa 0,0 l/m 14,1 km/h N 0,6 C 2,0 C 39,4 km/h
02.04.2015 11:00 7,9 C 62 % 1009,0 hPa 0,0 l/m 11,4 km/h N 1,1 C 4,4 C 34,6 km/h
02.04.2015 12:00 7,5 C 66 % 1007,9 hPa 0,0 l/m 10,0 km/h N 1,5 C 4,9 C 29,8 km/h
02.04.2015 13:00 7,1 C 71 % 1006,8 hPa 0,0 l/m 7,6 km/h N 2,1 C 6,1 C 22,1 km/h
02.04.2015 14:00 6,0 C 77 % 1005,9 hPa 0,0 l/m 9,9 km/h N 2,2 C 3,2 C 23,3 km/h
02.04.2015 15:00 5,6 C 80 % 1005,3 hPa 0,0 l/m 7,0 km/h N 2,4 C 4,7 C 18,1 km/h
02.04.2015 16:00 6,1 C 80 % 1004,8 hPa 0,0 l/m 5,7 km/h N 2,9 C 5,9 C 15,7 km/h
02.04.2015 17:00 3,7 C 81 % 1007,7 hPa 0,8 l/m 17,1 km/h N 0,7 C -3,3 C 37,0 km/h
02.04.2015 18:00 4,1 C 78 % 1009,2 hPa 0,0 l/m 12,4 km/h N 0,6 C -0,5 C 27,3 km/h
02.04.2015 19:00 4,3 C 70 % 1011,0 hPa 0,0 l/m 11,3 km/h N -0,8 C 0,6 C 27,8 km/h
02.04.2015 20:00 4,5 C 67 % 1011,7 hPa 0,3 l/m 13,0 km/h N -1,1 C -0,3 C 31,8 km/h
02.04.2015 21:00 4,3 C 67 % 1012,9 hPa 0,0 l/m 18,2 km/h N -1,4 C -3,2 C 40,6 km/h
02.04.2015 22:00 3,9 C 68 % 1013,4 hPa 0,0 l/m 18,6 km/h N -1,4 C -3,9 C 37,4 km/h
02.04.2015 23:00 4,0 C 69 % 1013,8 hPa 0,0 l/m 16,7 km/h N -1,2 C -2,9 C 35,0 km/h
03.04.2015 00:00 3,8 C 69 % 1014,9 hPa 0,0 l/m 18,5 km/h N -1,3 C -3,9 C 39,9 km/h
03.04.2015 01:00 3,2 C 70 % 1015,7 hPa 0,0 l/m 13,4 km/h N -1,8 C -2,1 C 31,8 km/h
03.04.2015 02:00 3,0 C 71 % 1016,1 hPa 0,0 l/m 13,3 km/h N -1,8 C -2,3 C 29,8 km/h
03.04.2015 03:00 2,9 C 69 % 1016,8 hPa 0,0 l/m 14,6 km/h N -2,2 C -3,2 C 32,6 km/h
03.04.2015 04:00 3,0 C 69 % 1017,5 hPa 0,0 l/m 13,9 km/h N -2,1 C -2,7 C 33,0 km/h
03.04.2015 05:00 2,8 C 68 % 1017,9 hPa 0,0 l/m 13,4 km/h N -2,6 C -2,7 C 32,6 km/h
03.04.2015 06:00 2,8 C 67 % 1018,2 hPa 0,0 l/m 14,1 km/h N -2,8 C -3,1 C 35,0 km/h
03.04.2015 07:00 3,0 C 65 % 1018,9 hPa 0,0 l/m 13,0 km/h N -3,0 C -2,2 C 37,0 km/h
03.04.2015 08:00 3,7 C 63 % 1019,6 hPa 0,0 l/m 13,9 km/h N -2,8 C -1,9 C 34,2 km/h
03.04.2015 09:00 4,2 C 62 % 1019,8 hPa 0,0 l/m 11,6 km/h N -2,4 C 0,1 C 31,0 km/h
03.04.2015 10:00 5,1 C 61 % 1020,1 hPa 0,0 l/m 10,6 km/h N -1,8 C 1,8 C 31,4 km/h
03.04.2015 11:00 6,9 C 56 % 1019,9 hPa 0,0 l/m 12,4 km/h N -1,3 C 2,8 C 30,2 km/h
03.04.2015 12:00 8,1 C 52 % 1019,5 hPa 0,0 l/m 13,5 km/h N -1,1 C 3,5 C 33,0 km/h
03.04.2015 13:00 8,3 C 50 % 1019,0 hPa 0,0 l/m 12,4 km/h N -1,5 C 4,4 C 30,6 km/h
03.04.2015 14:00 9,0 C 47 % 1018,5 hPa 0,0 l/m 12,9 km/h N -1,9 C 4,9 C 32,6 km/h
03.04.2015 15:00 8,9 C 46 % 1017,7 hPa 0,0 l/m 12,9 km/h N -2,2 C 4,8 C 31,4 km/h
03.04.2015 16:00 9,0 C 44 % 1017,1 hPa 0,0 l/m 11,1 km/h N -2,5 C 5,9 C 27,0 km/h
03.04.2015 17:00 9,1 C 45 % 1016,6 hPa 0,0 l/m 9,3 km/h N -2,4 C 7,1 C 25,7 km/h
03.04.2015 18:00 8,4 C 46 % 1016,6 hPa 0,0 l/m 7,1 km/h N -2,6 C 7,7 C 22,9 km/h
03.04.2015 19:00 7,7 C 48 % 1016,7 hPa 0,0 l/m 5,7 km/h N -2,7 C 7,4 C 20,5 km/h
03.04.2015 20:00 6,7 C 50 % 1017,0 hPa 0,0 l/m 2,8 km/h N -2,9 C 6,7 C 10,9 km/h
03.04.2015 21:00 5,8 C 54 % 1017,3 hPa 0,0 l/m 0,5 km/h N -2,8 C 5,8 C 2,8 km/h
03.04.2015 22:00 3,8 C 62 % 1017,3 hPa 0,0 l/m 0,0 km/h N -2,9 C 3,8 C 0,4 km/h
03.04.2015 23:00 2,7 C 66 % 1017,2 hPa 0,0 l/m 0,2 km/h N -2,9 C 2,7 C 3,6 km/h
04.04.2015 00:00 2,1 C 69 % 1017,0 hPa 0,0 l/m 0,6 km/h N -3,1 C 2,1 C 4,0 km/h
04.04.2015 01:00 1,6 C 70 % 1016,6 hPa 0,0 l/m 0,6 km/h N -3,3 C 1,6 C 3,6 km/h
04.04.2015 02:00 1,0 C 72 % 1016,0 hPa 0,0 l/m 0,4 km/h N -3,4 C 1,0 C 3,2 km/h
04.04.2015 03:00 0,4 C 75 % 1015,6 hPa 0,0 l/m 0,6 km/h N -3,5 C 0,4 C 4,8 km/h
04.04.2015 04:00 0,4 C 76 % 1015,2 hPa 0,0 l/m 0,6 km/h N -3,3 C 0,4 C 4,4 km/h
04.04.2015 05:00 0,0 C 76 % 1014,9 hPa 0,0 l/m 0,5 km/h N -3,7 C 0,0 C 4,4 km/h
04.04.2015 06:00 -0,1 C 77 % 1014,7 hPa 0,0 l/m 0,4 km/h N -3,7 C -0,1 C 3,2 km/h
04.04.2015 07:00 0,3 C 78 % 1014,6 hPa 0,0 l/m 0,4 km/h N -3,2 C 0,3 C 4,0 km/h
04.04.2015 08:00 2,7 C 73 % 1014,5 hPa 0,0 l/m 2,1 km/h N -1,7 C 2,7 C 6,0 km/h
04.04.2015 09:00 6,0 C 62 % 1014,2 hPa 0,0 l/m 2,4 km/h N -0,7 C 6,0 C 8,0 km/h
04.04.2015 10:00 8,2 C 55 % 1013,9 hPa 0,0 l/m 2,1 km/h N -0,3 C 8,2 C 9,3 km/h
04.04.2015 11:00 8,8 C 48 % 1013,7 hPa 0,0 l/m 3,2 km/h N -1,6 C 8,8 C 13,3 km/h
04.04.2015 12:00 9,0 C 47 % 1013,3 hPa 0,0 l/m 3,5 km/h N -1,7 C 9,0 C 14,1 km/h
04.04.2015 13:00 9,2 C 45 % 1012,8 hPa 0,0 l/m 2,1 km/h N -2,0 C 9,2 C 11,7 km/h
04.04.2015 14:00 9,8 C 44 % 1012,3 hPa 0,0 l/m 1,3 km/h N -1,9 C 9,8 C 7,6 km/h
04.04.2015 15:00 9,6 C 42 % 1011,9 hPa 0,0 l/m 1,6 km/h N -2,7 C 9,6 C 8,0 km/h
04.04.2015 16:00 9,7 C 41 % 1011,9 hPa 0,0 l/m 0,7 km/h N -3,1 C 9,7 C 6,8 km/h
04.04.2015 17:00 9,1 C 42 % 1012,0 hPa 0,0 l/m 1,7 km/h N -3,0 C 9,1 C 12,1 km/h
04.04.2015 18:00 8,5 C 44 % 1012,2 hPa 0,0 l/m 0,7 km/h N -3,2 C 8,5 C 8,4 km/h
04.04.2015 19:00 7,9 C 46 % 1012,5 hPa 0,0 l/m 0,5 km/h N -3,1 C 7,9 C 4,8 km/h
04.04.2015 20:00 7,0 C 53 % 1012,7 hPa 0,0 l/m 0,0 km/h N -2,1 C 7,0 C 0,4 km/h
04.04.2015 21:00 5,7 C 60 % 1013,1 hPa 0,0 l/m 0,0 km/h N -1,4 C 5,7 C 0,4 km/h
04.04.2015 22:00 5,0 C 60 % 1013,3 hPa 0,0 l/m 0,1 km/h N -2,1 C 5,0 C 0,8 km/h
04.04.2015 23:00 4,9 C 57 % 1013,8 hPa 0,0 l/m 1,7 km/h N -2,8 C 4,9 C 7,3 km/h
05.04.2015 00:00 4,9 C 59 % 1014,2 hPa 0,0 l/m 1,4 km/h N -2,5 C 4,9 C 8,0 km/h
05.04.2015 01:00 3,8 C 63 % 1014,5 hPa 0,0 l/m 0,2 km/h N -2,7 C 3,8 C 1,6 km/h
05.04.2015 02:00 2,8 C 66 % 1014,7 hPa 0,0 l/m 1,2 km/h N -3,0 C 2,8 C 5,2 km/h
05.04.2015 03:00 2,3 C 68 % 1014,8 hPa 0,0 l/m 2,0 km/h N -3,1 C 2,3 C 6,0 km/h
05.04.2015 04:00 1,8 C 71 % 1015,2 hPa 0,0 l/m 3,7 km/h N -2,9 C 1,8 C 9,7 km/h
05.04.2015 05:00 1,4 C 72 % 1015,9 hPa 0,0 l/m 1,0 km/h N -3,1 C 1,4 C 6,4 km/h
05.04.2015 06:00 1,0 C 73 % 1016,5 hPa 0,0 l/m 1,0 km/h N -3,3 C 1,0 C 4,8 km/h
05.04.2015 07:00 1,1 C 74 % 1017,3 hPa 0,0 l/m 3,8 km/h N -3,0 C 1,0 C 10,1 km/h
05.04.2015 08:00 2,9 C 71 % 1017,8 hPa 0,0 l/m 7,1 km/h N -1,9 C 2,3 C 16,9 km/h
05.04.2015 09:00 4,5 C 67 % 1018,4 hPa 0,0 l/m 7,9 km/h N -1,1 C 3,2 C 17,3 km/h
05.04.2015 10:00 5,7 C 64 % 1018,7 hPa 0,0 l/m 9,1 km/h N -0,5 C 3,5 C 23,3 km/h
05.04.2015 11:00 6,2 C 60 % 1018,7 hPa 0,0 l/m 9,6 km/h N -1,0 C 3,8 C 22,1 km/h
05.04.2015 12:00 6,8 C 57 % 1018,8 hPa 0,0 l/m 7,3 km/h N -1,1 C 5,9 C 20,1 km/h
05.04.2015 13:00 7,3 C 55 % 1018,8 hPa 0,0 l/m 8,5 km/h N -1,1 C 5,7 C 21,3 km/h
05.04.2015 14:00 6,9 C 54 % 1018,9 hPa 0,0 l/m 8,4 km/h N -1,9 C 5,3 C 21,3 km/h
05.04.2015 15:00 7,3 C 54 % 1018,8 hPa 0,0 l/m 8,6 km/h N -1,5 C 5,6 C 20,1 km/h
05.04.2015 16:00 7,2 C 52 % 1018,9 hPa 0,0 l/m 5,4 km/h N -2,0 C 7,0 C 15,7 km/h
05.04.2015 17:00 7,9 C 44 % 1019,0 hPa 0,0 l/m 8,6 km/h N -3,5 C 6,2 C 20,5 km/h
05.04.2015 18:00 7,6 C 44 % 1019,4 hPa 0,0 l/m 8,9 km/h N -3,8 C 5,7 C 21,3 km/h
05.04.2015 19:00 6,5 C 50 % 1020,1 hPa 0,0 l/m 5,5 km/h N -3,2 C 6,2 C 14,9 km/h
05.04.2015 20:00 5,5 C 55 % 1020,8 hPa 0,0 l/m 4,2 km/h N -2,8 C 5,5 C 12,5 km/h
05.04.2015 21:00 4,3 C 59 % 1021,1 hPa 0,0 l/m 1,5 km/h N -2,9 C 4,3 C 7,6 km/h
05.04.2015 22:00 3,7 C 61 % 1021,4 hPa 0,0 l/m 1,1 km/h N -3,1 C 3,7 C 5,2 km/h
05.04.2015 23:00 3,5 C 61 % 1021,5 hPa 0,0 l/m 2,6 km/h N -3,3 C 3,5 C 8,0 km/h
Min-Datum _ 04.04.15 04.04.15 31.03.15 - 30.03.15 - 05.04.15 02.04.15 03.04.15
_ Min-Zeit 06:45 16:45 14:45 - 09:15 - 18:00 21:45 21:30
Minimum _ -0,2 C 39 % 995,5 hPa - 0,0 km/h - -4,3 C -5,5 C 0,0 km/h
Max-Datum _ 31.03.15 30.03.15 05.04.15 30.03.15 30.03.15 - 31.03.15 31.03.15 31.03.15
_ Max-Zeit 15:00 09:15 23:30 18:00 17:45 - 13:15 14:15 17:00
Maximum _ 17,6 C 84 % 1021,6 hPa 2,3 l/m 25,7 km/h
N
- 9,0 C 15,4 C 64,4 km/h
N
Durchschnitt _ 6,5 C 65 % 1010,9 hPa #20,3 l/m 8,2 km/h N 0,2 C 4,3 C 23,3 km/h